Metar Aviation Weather Data LFTW

19°C Temp
2°C Dewpoint
% Humidity
Temperature
24 KM/H
15 MPH
13 KTS
180°
Due South

Wind Speed
Clear
Conditions
Pressure 1019.92 (hPa) - 30.12 (in)
Visibility 6.2 (mi) - 10.0 (km)

Current Conditions
LFTW
Metar :LFTW 051500Z AUTO 18013KT CAVOK 19/02 Q1020 NOSIG
Sun 5th April 16:00 pm

  Metar Aviation API Data Provided by https://www.checkwx.com/ PHP scripts by weather34.com ©2020